Time;durP1;ratioP1;P1;durP2;ratioP2;P2;SDS_P1;SDS_P2;PMS_P1;PMS_P2;Temp;Humidity;BMP_temperature;BMP_pressure;BME280_temperature;BME280_humidity;BME280_pressure;Samples;Min_cycle;Max_cycle;Signal;HPM_P1;HPM_P2
2022/04/23 00:01:39;;;;;;;6.43;5.57;;;2.80;99.90;;;;;;5013329;28;20173;-82
2022/04/23 00:04:05;;;;;;;7.87;4.87;;;2.80;99.90;;;;;;4995630;28;20269;-81
2022/04/23 00:06:31;;;;;;;6.97;4.40;;;2.70;99.90;;;;;;5013341;28;20185;-82
2022/04/23 00:08:56;;;;;;;8.80;5.20;;;4.20;99.90;;;;;;5013086;28;20224;-82
2022/04/23 00:11:22;;;;;;;6.80;6.10;;;2.70;99.90;;;;;;5013004;28;20189;-82
2022/04/23 00:13:48;;;;;;;6.30;3.37;;;2.70;99.90;;;;;;4995597;28;20236;-82
2022/04/23 00:16:15;;;;;;;5.00;3.67;;;;;;;;;;4995366;28;20659;-81
2022/04/23 00:18:42;;;;;;;5.33;4.27;;;2.70;99.90;;;;;;4995588;28;20182;-81
2022/04/23 00:21:08;;;;;;;4.40;4.00;;;2.70;99.90;;;;;;5012882;28;20687;-81
2022/04/23 00:23:34;;;;;;;7.57;4.53;;;2.90;99.90;;;;;;4996199;28;20198;-81
2022/04/23 00:26:01;;;;;;;5.50;4.63;;;2.40;99.90;;;;;;4999200;28;20192;-81
2022/04/23 00:28:26;;;;;;;7.73;4.13;;;2.50;99.90;;;;;;5016964;28;20193;-82
2022/04/23 00:30:52;;;;;;;11.43;7.67;;;2.60;99.90;;;;;;5016761;28;20174;-82
2022/04/23 00:33:21;;;;;;;6.33;5.17;;;2.50;99.90;;;;;;5016194;28;20722;-81
2022/04/23 00:35:49;;;;;;;11.37;6.60;;;2.50;99.90;;;;;;5016446;28;20650;-81
2022/04/23 00:38:16;;;;;;;8.97;5.53;;;;;;;;;;4998465;28;20187;-82
2022/04/23 00:40:43;;;;;;;15.87;6.37;;;2.40;99.90;;;;;;4999438;28;20185;-82
2022/04/23 00:43:27;;;;;;;7.57;6.43;;;2.20;99.90;;;;;;4998274;28;20181;-81
2022/04/23 00:45:53;;;;;;;10.03;5.20;;;;;;;;;;5016193;28;20554;-81
2022/04/23 00:48:19;;;;;;;4.57;4.13;;;2.40;99.90;;;;;;4998625;28;20192;-82
2022/04/23 00:50:44;;;;;;;10.47;5.00;;;2.30;99.90;;;;;;4998585;28;20196;-82
2022/04/23 00:53:11;;;;;;;7.60;5.97;;;2.10;99.90;;;;;;5016306;28;20188;-81
2022/04/23 00:55:37;;;;;;;12.40;9.53;;;2.40;99.90;;;;;;4998302;28;20285;-81
2022/04/23 00:58:04;;;;;;;4.53;3.63;;;2.20;99.90;;;;;;5015743;28;20182;-81
2022/04/23 01:00:30;;;;;;;18.90;8.30;;;2.40;99.90;;;;;;4998730;28;20204;-81
2022/04/23 01:02:55;;;;;;;10.87;8.10;;;2.20;99.90;;;;;;4998639;28;20191;-81
2022/04/23 01:05:25;;;;;;;6.10;5.53;;;2.20;99.90;;;;;;4982159;28;20212;-81
2022/04/23 01:07:52;;;;;;;12.80;7.77;;;;;;;;;;5016035;28;20271;-81
2022/04/23 01:10:18;;;;;;;15.50;7.30;;;;;;;;;;5015046;28;20191;-82
2022/04/23 01:12:45;;;;;;;23.63;6.90;;;;;;;;;;5015874;28;20192;-82
2022/04/23 01:15:15;;;;;;;8.53;5.90;;;1.90;99.90;;;;;;4998090;28;20183;-82
2022/04/23 01:17:42;;;;;;;9.23;5.00;;;1.80;99.90;;;;;;5015945;28;20186;-82
2022/04/23 01:20:13;;;;;;;18.97;7.93;;;2.00;99.90;;;;;;5015508;28;20181;-82
2022/04/23 01:22:40;;;;;;;7.73;3.87;;;2.00;99.90;;;;;;5007324;28;20619;-82
2022/04/23 01:25:12;;;;;;;7.93;5.50;;;1.90;99.90;;;;;;5005622;28;20621;-82
2022/04/23 01:27:38;;;;;;;10.80;6.07;;;1.90;99.90;;;;;;4998156;28;20212;-82
2022/04/23 01:30:06;;;;;;;20.20;7.57;;;1.90;99.90;;;;;;4997775;28;20183;-86
2022/04/23 01:32:32;;;;;;;8.00;6.90;;;1.80;99.90;;;;;;4998666;28;20182;-82
2022/04/23 01:34:58;;;;;;;20.70;5.40;;;1.90;99.90;;;;;;5015117;28;20199;-82
2022/04/23 01:37:24;;;;;;;5.13;3.37;;;2.10;99.90;;;;;;4997451;28;20268;-82
2022/04/23 01:39:50;;;;;;;11.50;6.40;;;2.00;99.90;;;;;;5015364;28;20265;-82
2022/04/23 01:42:18;;;;;;;5.67;4.57;;;2.40;99.90;;;;;;4997698;28;20264;-82
2022/04/23 01:44:48;;;;;;;7.37;5.30;;;1.90;99.90;;;;;;5015367;28;20224;-82
2022/04/23 01:47:14;;;;;;;7.57;5.90;;;2.00;99.90;;;;;;5014992;28;20261;-82
2022/04/23 01:49:41;;;;;;;10.23;8.07;;;1.90;99.90;;;;;;5015051;28;20624;-82
2022/04/23 01:52:07;;;;;;;10.10;6.60;;;1.80;99.90;;;;;;5014929;28;20222;-86
2022/04/23 01:54:34;;;;;;;14.50;7.17;;;1.70;99.90;;;;;;5014702;28;20325;-82
2022/04/23 01:57:00;;;;;;;8.93;6.33;;;2.20;99.90;;;;;;5015495;28;20186;-82
2022/04/23 01:59:26;;;;;;;5.83;5.20;;;1.70;99.90;;;;;;4997766;28;20177;-82
2022/04/23 02:01:52;;;;;;;7.30;6.50;;;;;;;;;;4997730;28;20657;-82
2022/04/23 02:04:18;;;;;;;9.73;7.70;;;1.70;99.90;;;;;;4997197;28;20246;-82
2022/04/23 02:06:44;;;;;;;13.93;6.30;;;2.80;99.90;;;;;;5015109;28;20177;-82
2022/04/23 02:09:10;;;;;;;9.33;5.70;;;1.60;99.90;;;;;;5014866;28;20175;-82
2022/04/23 02:11:36;;;;;;;10.23;7.03;;;;;;;;;;4997665;28;20269;-82
2022/04/23 02:14:02;;;;;;;8.10;4.57;;;1.70;99.90;;;;;;5026085;28;20189;-81
2022/04/23 02:16:29;;;;;;;6.43;5.37;;;1.70;99.90;;;;;;5024622;28;20201;-81
2022/04/23 02:18:57;;;;;;;19.83;4.87;;;1.80;99.90;;;;;;5023288;28;20183;-82
2022/04/23 02:21:24;;;;;;;7.97;4.00;;;;;;;;;;4989367;28;20185;-82
2022/04/23 02:23:50;;;;;;;8.63;3.87;;;1.60;99.90;;;;;;4985326;28;20540;-82
2022/04/23 02:26:15;;;;;;;8.23;4.73;;;1.70;99.90;;;;;;4996759;28;20185;-82
2022/04/23 02:28:41;;;;;;;8.33;6.40;;;2.50;99.90;;;;;;4996552;28;20251;-82
2022/04/23 02:31:07;;;;;;;4.57;4.17;;;1.60;99.90;;;;;;5014199;28;20656;-82
2022/04/23 02:33:33;;;;;;;13.13;4.73;;;1.60;99.90;;;;;;5013063;28;20704;-83
2022/04/23 02:35:59;;;;;;;5.97;4.13;;;1.60;99.90;;;;;;5012501;28;20185;-82
2022/04/23 02:38:25;;;;;;;6.17;4.33;;;1.60;99.90;;;;;;4995346;28;20548;-82
2022/04/23 02:40:50;;;;;;;10.77;4.60;;;1.70;99.90;;;;;;5012903;28;20181;-82
2022/04/23 02:43:16;;;;;;;11.73;7.13;;;1.70;99.90;;;;;;4994980;28;20186;-83
2022/04/23 02:45:42;;;;;;;13.03;8.57;;;1.70;99.90;;;;;;5012586;28;20218;-82
2022/04/23 02:48:11;;;;;;;9.60;6.07;;;1.70;99.90;;;;;;4994125;28;20184;-83
2022/04/23 02:50:39;;;;;;;7.87;4.47;;;1.70;99.90;;;;;;4995637;28;20178;-84
2022/04/23 02:53:06;;;;;;;7.33;5.97;;;1.60;99.90;;;;;;5012537;28;20184;-83
2022/04/23 02:55:34;;;;;;;6.30;4.63;;;2.80;99.90;;;;;;4994460;28;20287;-82
2022/04/23 02:58:10;;;;;;;14.90;7.27;;;1.60;99.90;;;;;;5009860;28;20187;-82
2022/04/23 03:00:38;;;;;;;10.00;4.20;;;1.60;99.90;;;;;;5013063;28;20544;-82
2022/04/23 03:03:05;;;;;;;5.67;3.80;;;1.60;99.90;;;;;;5013021;28;20193;-82
2022/04/23 03:05:31;;;;;;;3.73;3.47;;;1.60;99.90;;;;;;4980042;28;20637;-81
2022/04/23 03:08:00;;;;;;;7.17;3.30;;;3.40;99.90;;;;;;5013311;28;20191;-82
2022/04/23 03:10:27;;;;;;;11.43;5.80;;;1.80;99.90;;;;;;4990046;28;20568;-82
2022/04/23 03:12:56;;;;;;;6.17;5.60;;;2.60;99.90;;;;;;5013425;28;20696;-82
2022/04/23 03:15:23;;;;;;;6.53;5.00;;;2.60;99.90;;;;;;4994967;28;20519;-83
2022/04/23 03:17:49;;;;;;;7.50;3.63;;;3.00;99.90;;;;;;4995724;28;20185;-82
2022/04/23 03:20:15;;;;;;;4.97;3.37;;;3.60;99.90;;;;;;5012326;28;20186;-83
2022/04/23 03:22:42;;;;;;;4.20;3.23;;;2.80;99.90;;;;;;5012391;28;20534;-82
2022/04/23 03:25:09;;;;;;;4.90;4.10;;;1.70;99.90;;;;;;5012645;28;20205;-84
2022/04/23 03:27:35;;;;;;;9.03;5.47;;;1.60;99.90;;;;;;5012652;28;20204;-82
2022/04/23 03:30:02;;;;;;;11.53;5.47;;;1.70;99.90;;;;;;5012179;28;20181;-84
2022/04/23 03:32:28;;;;;;;6.60;4.50;;;2.00;99.90;;;;;;4992632;28;20182;-83
2022/04/23 03:34:54;;;;;;;7.30;5.60;;;1.80;99.90;;;;;;4971311;28;20182;-83
2022/04/23 03:37:21;;;;;;;5.50;3.73;;;;;;;;;;5012486;28;20666;-83
2022/04/23 03:39:48;;;;;;;6.00;5.00;;;1.80;99.90;;;;;;5009983;28;20185;-83
2022/04/23 03:42:15;;;;;;;6.13;5.43;;;;;;;;;;5009943;28;20213;-83
2022/04/23 03:44:41;;;;;;;9.07;3.97;;;1.80;99.90;;;;;;5013433;28;20196;-83
2022/04/23 03:47:06;;;;;;;13.27;5.30;;;1.90;99.90;;;;;;4995743;28;20193;-82
2022/04/23 03:49:32;;;;;;;8.87;5.90;;;2.10;99.90;;;;;;5013266;28;20187;-82
2022/04/23 03:51:59;;;;;;;7.30;4.37;;;1.70;99.90;;;;;;4995653;28;20178;-82
2022/04/23 03:54:25;;;;;;;6.77;5.80;;;2.10;99.90;;;;;;4995268;28;20215;-82
2022/04/23 03:56:51;;;;;;;5.87;4.60;;;2.10;99.90;;;;;;5013128;28;20185;-82
2022/04/23 03:59:21;;;;;;;9.63;5.57;;;;;;;;;;5014946;28;20190;-87
2022/04/23 04:01:48;;;;;;;10.37;5.10;;;2.20;99.90;;;;;;4999553;28;20557;-82
2022/04/23 04:04:15;;;;;;;5.30;4.53;;;2.30;99.90;;;;;;5016979;28;20204;-82
2022/04/23 04:06:41;;;;;;;5.57;4.33;;;2.30;99.90;;;;;;4999196;28;20280;-82
2022/04/23 04:09:07;;;;;;;7.90;5.40;;;;;;;;;;5000056;28;20201;-82
2022/04/23 04:12:01;;;;;;;4.63;4.17;;;2.70;99.90;;;;;;4999232;28;20669;-82
2022/04/23 04:14:19;;;;;;;4.73;4.30;;;2.50;99.90;;;;;;5001960;28;20203;-83
2022/04/23 04:16:46;;;;;;;6.67;3.93;;;2.40;99.90;;;;;;5017182;28;20187;-82
2022/04/23 04:19:14;;;;;;;7.97;4.93;;;2.70;99.90;;;;;;5016653;28;20180;-82
2022/04/23 04:21:44;;;;;;;5.93;5.00;;;2.90;99.90;;;;;;4998905;28;20285;-82
2022/04/23 04:24:13;;;;;;;7.80;4.30;;;2.60;99.90;;;;;;5016715;28;20253;-82
2022/04/23 04:26:44;;;;;;;8.00;6.43;;;2.90;99.90;;;;;;4999211;28;20277;-82
2022/04/23 04:29:10;;;;;;;12.20;5.80;;;3.00;99.90;;;;;;4999109;28;20652;-82
2022/04/23 04:31:49;;;;;;;7.07;5.07;;;;;;;;;;5016402;28;20695;-82
2022/04/23 04:34:15;;;;;;;6.33;4.77;;;3.10;99.90;;;;;;5016863;28;20277;-82
2022/04/23 04:36:41;;;;;;;9.33;6.77;;;3.30;99.90;;;;;;5016535;28;20260;-83
2022/04/23 04:39:06;;;;;;;11.93;7.93;;;3.20;99.90;;;;;;4999122;28;20180;-82
2022/04/23 04:41:35;;;;;;;8.43;6.70;;;;;;;;;;5016380;28;20622;-83
2022/04/23 04:44:04;;;;;;;3.03;2.83;;;3.40;99.90;;;;;;4997474;28;20707;-84
2022/04/23 04:46:30;;;;;;;16.17;5.90;;;3.50;99.90;;;;;;5015902;28;20192;-84
2022/04/23 04:48:56;;;;;;;7.60;3.77;;;3.50;99.90;;;;;;4997922;28;20195;-82
2022/04/23 04:51:21;;;;;;;6.70;4.33;;;3.60;99.90;;;;;;5015501;28;20180;-84
2022/04/23 04:53:47;;;;;;;6.07;4.70;;;3.90;99.90;;;;;;5014986;28;20711;-84
2022/04/23 04:56:13;;;;;;;6.87;3.93;;;;;;;;;;4997359;28;20646;-84
2022/04/23 04:58:43;;;;;;;8.93;5.40;;;3.90;99.90;;;;;;5018500;28;20192;-84
2022/04/23 05:01:09;;;;;;;5.30;3.27;;;;;;;;;;4997103;28;20196;-82
2022/04/23 05:03:35;;;;;;;5.20;4.07;;;4.00;99.90;;;;;;5018213;28;20753;-81
2022/04/23 05:06:01;;;;;;;4.87;4.43;;;3.80;99.90;;;;;;5021978;28;20252;-81
2022/04/23 05:08:26;;;;;;;5.03;4.47;;;3.70;99.90;;;;;;5015884;28;20272;-82
2022/04/23 05:10:52;;;;;;;7.93;5.37;;;3.70;99.90;;;;;;5013576;28;20576;-82
2022/04/23 05:13:17;;;;;;;5.13;3.93;;;3.80;99.90;;;;;;4980581;28;20659;-82
2022/04/23 05:15:46;;;;;;;6.20;4.80;;;3.80;99.90;;;;;;4997149;28;20254;-82
2022/04/23 05:18:15;;;;;;;7.77;5.53;;;3.90;99.90;;;;;;5014498;28;20196;-82
2022/04/23 05:20:41;;;;;;;6.03;4.53;;;4.30;99.90;;;;;;4996676;28;20342;-83
2022/04/23 05:23:06;;;;;;;10.23;5.67;;;4.10;99.90;;;;;;4996432;28;20671;-85
2022/04/23 05:25:32;;;;;;;7.23;5.37;;;3.90;99.90;;;;;;5012118;28;20307;-83
2022/04/23 05:27:58;;;;;;;5.63;4.50;;;4.10;99.90;;;;;;4966652;28;20181;-83
2022/04/23 05:30:24;;;;;;;5.00;3.83;;;;;;;;;;5011769;28;20242;-84
2022/04/23 05:32:50;;;;;;;4.77;4.23;;;3.90;99.90;;;;;;5012799;28;20190;-83
2022/04/23 05:35:16;;;;;;;7.53;4.63;;;;;;;;;;4995704;28;20202;-83
2022/04/23 05:37:42;;;;;;;9.03;4.77;;;;;;;;;;4995232;28;20561;-83
2022/04/23 05:40:08;;;;;;;4.80;3.80;;;4.30;99.90;;;;;;5010148;28;20193;-82
2022/04/23 05:42:34;;;;;;;15.07;5.30;;;;;;;;;;5000509;28;20189;-83
2022/04/23 05:45:00;;;;;;;6.27;5.67;;;4.60;99.90;;;;;;4985082;28;20206;-81
2022/04/23 05:47:26;;;;;;;6.43;4.13;;;;;;;;;;5006748;28;21009;-83
2022/04/23 05:49:52;;;;;;;6.60;5.97;;;4.30;99.90;;;;;;4994761;28;20207;-85
2022/04/23 05:52:18;;;;;;;6.17;3.30;;;;;;;;;;5008527;28;20205;-86
2022/04/23 05:54:44;;;;;;;3.70;2.93;;;;;;;;;;5003149;28;20237;-81
2022/04/23 05:57:10;;;;;;;6.13;4.53;;;;;;;;;;5004474;28;20199;-82
2022/04/23 05:59:36;;;;;;;5.13;3.77;;;;;;;;;;5011202;28;20192;-84
2022/04/23 06:02:03;;;;;;;3.13;2.90;;;;;;;;;;4998548;28;20277;-82
2022/04/23 06:04:29;;;;;;;3.57;3.10;;;;;;;;;;4978400;28;20618;-84
2022/04/23 06:06:56;;;;;;;5.63;4.03;;;4.50;99.90;;;;;;5008713;28;20193;-83
2022/04/23 06:09:22;;;;;;;4.87;3.03;;;;;;;;;;5015026;28;20193;-83
2022/04/23 06:11:48;;;;;;;14.20;5.33;;;;;;;;;;4997133;28;20223;-83
2022/04/23 06:14:14;;;;;;;4.50;2.43;;;;;;;;;;4979030;28;20228;-84
2022/04/23 06:16:40;;;;;;;4.40;3.80;;;;;;;;;;5012555;28;20195;-85
2022/04/23 06:19:06;;;;;;;3.13;2.90;;;;;;;;;;5014867;28;20676;-84
2022/04/23 06:21:32;;;;;;;3.70;2.40;;;;;;;;;;4990417;28;20189;-83
2022/04/23 06:23:58;;;;;;;6.30;3.33;;;;;;;;;;5013741;28;20181;-83
2022/04/23 06:26:25;;;;;;;6.17;4.03;;;;;;;;;;5001849;28;20267;-84
2022/04/23 06:28:51;;;;;;;6.17;3.70;;;;;;;;;;4993871;28;20205;-85
2022/04/23 06:31:17;;;;;;;7.37;4.50;;;;;;;;;;4982556;28;20209;-84
2022/04/23 06:33:43;;;;;;;5.07;3.90;;;;;;;;;;4996984;28;20190;-84
2022/04/23 06:36:10;;;;;;;7.00;4.87;;;;;;;;;;4983392;28;20194;-86
2022/04/23 06:38:36;;;;;;;8.83;4.27;;;;;;;;;;5006816;28;20204;-84
2022/04/23 06:41:02;;;;;;;4.67;3.60;;;;;;;;;;4986727;28;20307;-84
2022/04/23 06:43:28;;;;;;;7.63;4.43;;;;;;;;;;4995339;28;20217;-84
2022/04/23 06:45:54;;;;;;;3.07;2.80;;;;;;;;;;4989116;28;20216;-84
2022/04/23 06:48:20;;;;;;;4.47;3.07;;;;;;;;;;4989822;28;20539;-84
2022/04/23 06:50:46;;;;;;;6.60;4.47;;;;;;;;;;5008458;28;20197;-84
2022/04/23 06:53:12;;;;;;;7.33;5.57;;;;;;;;;;4987367;28;20555;-83
2022/04/23 06:55:38;;;;;;;3.73;3.33;;;6.70;99.90;;;;;;4989756;28;20229;-83
2022/04/23 06:58:04;;;;;;;4.87;3.10;;;;;;;;;;4995865;28;20197;-82
2022/04/23 07:00:30;;;;;;;4.83;3.63;;;;;;;;;;5012727;28;20177;-83
2022/04/23 07:02:56;;;;;;;8.33;5.03;;;;;;;;;;4995673;28;20185;-84
2022/04/23 07:05:22;;;;;;;8.40;4.87;;;;;;;;;;5005293;28;20221;-85
2022/04/23 07:07:56;;;;;;;4.23;3.83;;;7.10;99.90;;;;;;5009682;28;20268;-84
2022/04/23 07:10:22;;;;;;;7.53;4.50;;;;;;;;;;4991826;28;20189;-83
2022/04/23 07:12:48;;;;;;;10.30;5.47;;;;;;;;;;5012724;28;20182;-83
2022/04/23 07:15:15;;;;;;;6.77;4.50;;;;;;;;;;4994569;28;20576;-84
2022/04/23 07:17:41;;;;;;;5.17;4.10;;;;;;;;;;5011207;28;20188;-83
2022/04/23 07:20:07;;;;;;;6.27;4.37;;;;;;;;;;4998144;28;20188;-84
2022/04/23 07:22:33;;;;;;;9.87;5.70;;;;;;;;;;4986518;28;20181;-83
2022/04/23 07:24:59;;;;;;;5.83;3.80;;;;;;;;;;4988137;28;20581;-84
2022/04/23 07:27:27;;;;;;;6.73;5.27;;;;;;;;;;5007335;28;20287;-82
2022/04/23 07:29:53;;;;;;;10.07;4.70;;;;;;;;;;4987448;28;20688;-82
2022/04/23 07:32:21;;;;;;;8.97;6.23;;;;;;;;;;5006135;28;20207;-81
2022/04/23 07:37:33;;;;;;;12.27;5.93;;;;;;;;;;4998572;28;20659;-85
2022/04/23 07:40:05;;;;;;;7.60;4.83;;;7.90;99.90;;;;;;4988347;28;20189;-84
2022/04/23 07:42:32;;;;;;;9.17;5.30;;;7.90;99.90;;;;;;5014019;28;20185;-81
2022/04/23 07:44:58;;;;;;;12.63;7.07;;;;;;;;;;5014968;28;20272;-87
2022/04/23 07:47:24;;;;;;;6.90;4.53;;;;;;;;;;5023593;28;20198;-82
2022/04/23 07:49:51;;;;;;;9.37;5.50;;;;;;;;;;5021747;28;20189;-83
2022/04/23 07:52:17;;;;;;;8.30;5.43;;;;;;;;;;5004368;28;20783;-81
2022/04/23 07:54:43;;;;;;;7.70;5.17;;;;;;;;;;5011294;28;20236;-82
2022/04/23 07:57:10;;;;;;;9.90;6.03;;;7.80;99.90;;;;;;5008522;28;20266;-81
2022/04/23 07:59:43;;;;;;;9.30;6.30;;;7.80;99.90;;;;;;4984850;28;20198;-86
2022/04/23 08:02:09;;;;;;;7.57;4.93;;;;;;;;;;5008568;28;20196;-81
2022/04/23 08:04:35;;;;;;;7.00;4.43;;;;;;;;;;5007119;28;20208;-82
2022/04/23 08:07:02;;;;;;;8.77;5.17;;;;;;;;;;4988109;28;20193;-81
2022/04/23 08:09:28;;;;;;;5.53;4.17;;;;;;;;;;5010005;28;20193;-81
2022/04/23 08:11:54;;;;;;;11.13;5.73;;;8.10;99.90;;;;;;4992761;28;20203;-81
2022/04/23 08:14:20;;;;;;;5.60;4.40;;;;;;;;;;5019286;28;20227;-82
2022/04/23 08:16:49;;;;;;;2.40;2.17;;;;;;;;;;4995220;28;20189;-80
2022/04/23 08:19:17;;;;;;;5.40;3.93;;;;;;;;;;5012941;28;20173;-84
2022/04/23 08:21:43;;;;;;;3.93;3.33;;;;;;;;;;5011855;28;20188;-83
2022/04/23 08:24:09;;;;;;;6.37;4.17;;;;;;;;;;4991350;28;20214;-83
2022/04/23 08:26:35;;;;;;;4.67;2.83;;;8.80;99.90;;;;;;5009904;28;20193;-82
2022/04/23 08:31:45;;;;;;;2.07;1.87;;;;;;;;;;5010960;28;20692;-83
2022/04/23 08:34:12;;;;;;;3.83;3.00;;;;;;;;;;5010618;28;20192;-82
2022/04/23 08:36:39;;;;;;;3.73;2.80;;;;;;;;;;4992974;28;20299;-85
2022/04/23 08:39:06;;;;;;;6.13;4.13;;;8.70;99.90;;;;;;4997258;28;20284;-83
2022/04/23 08:41:33;;;;;;;4.97;3.30;;;;;;;;;;5007318;28;20208;-82
2022/04/23 08:44:07;;;;;;;3.63;2.63;;;8.50;99.90;;;;;;5012864;28;20185;-81
2022/04/23 08:46:34;;;;;;;5.07;3.27;;;8.40;99.90;;;;;;5023330;28;20189;-81
2022/04/23 08:49:06;;;;;;;5.67;4.13;;;8.50;99.90;;;;;;5014122;28;20193;-81
2022/04/23 08:51:34;;;;;;;2.17;1.80;;;8.60;99.90;;;;;;5000105;28;20283;-81
2022/04/23 08:54:05;;;;;;;6.67;3.20;;;8.60;99.90;;;;;;5020358;28;20181;-82
2022/04/23 08:56:31;;;;;;;3.83;2.63;;;;;;;;;;5021664;28;20729;-81
2022/04/23 08:58:57;;;;;;;6.70;4.37;;;;;;;;;;5017445;28;20188;-82
2022/04/23 09:01:24;;;;;;;3.00;2.60;;;;;;;;;;5001338;28;20531;-81
2022/04/23 09:03:50;;;;;;;5.07;2.90;;;;;;;;;;5001973;28;20623;-81
2022/04/23 09:06:16;;;;;;;6.67;2.80;;;;;;;;;;5011478;28;20304;-83
2022/04/23 09:09:07;;;;;;;4.00;3.60;;;8.40;99.90;;;;;;5007764;28;20612;-83
2022/04/23 09:11:36;;;;;;;2.30;2.10;;;8.90;99.90;;;;;;4995983;28;20551;-82
2022/04/23 09:14:06;;;;;;;5.90;3.50;;;9.10;99.90;;;;;;5002205;28;20178;-83
2022/04/23 09:25:10;;;;;;;3.63;2.13;;;9.60;99.90;;;;;;5014805;28;20255;-85
2022/04/23 09:27:42;;;;;;;3.13;2.30;;;9.30;99.90;;;;;;4996946;28;20193;-82
2022/04/23 09:30:12;;;;;;;4.03;2.50;;;9.70;99.90;;;;;;4980583;28;20208;-82
2022/04/23 09:32:38;;;;;;;3.00;2.10;;;;;;;;;;5013524;28;20185;-84
2022/04/23 09:35:12;;;;;;;2.03;1.67;;;9.50;99.90;;;;;;4995987;28;20187;-81
2022/04/23 09:40:27;;;;;;;3.17;2.07;;;9.60;99.90;;;;;;5016031;28;20214;-83
2022/04/23 09:43:05;;;;;;;2.63;1.63;;;9.70;99.90;;;;;;5013780;28;20228;-81
2022/04/23 09:45:32;;;;;;;1.30;1.20;;;9.80;99.90;;;;;;4993055;28;20228;-83
2022/04/23 09:48:04;;;;;;;3.27;1.03;;;9.60;99.90;;;;;;4996014;28;20259;-81
2022/04/23 09:50:37;;;;;;;3.10;2.00;;;9.70;99.90;;;;;;5012427;28;20199;-83
2022/04/23 09:53:19;;;;;;;1.53;1.43;;;9.50;99.90;;;;;;4989667;28;20336;-83
2022/04/23 09:55:46;;;;;;;1.37;1.27;;;9.60;99.90;;;;;;4991653;28;20383;-85
2022/04/23 09:58:13;;;;;;;3.47;1.90;;;8.30;99.90;;;;;;4979306;28;20197;-82
2022/04/23 10:00:47;;;;;;;2.47;1.63;;;9.70;99.90;;;;;;5013130;28;20192;-85
2022/04/23 10:03:13;;;;;;;2.33;2.10;;;;;;;;;;5011397;28;20189;-82
2022/04/23 10:05:49;;;;;;;3.70;2.03;;;9.70;99.90;;;;;;5012137;28;20280;-81
2022/04/23 10:08:22;;;;;;;5.10;2.63;;;9.80;99.90;;;;;;4991948;28;20715;-79
2022/04/23 10:10:55;;;;;;;3.47;2.30;;;9.90;99.90;;;;;;5001727;28;20190;-81
2022/04/23 10:13:28;;;;;;;2.03;1.73;;;9.40;99.90;;;;;;5001367;28;20260;-82
2022/04/23 10:15:54;;;;;;;2.43;1.83;;;9.80;99.90;;;;;;4991497;28;20182;-82
2022/04/23 10:18:21;;;;;;;1.40;1.30;;;10.00;99.90;;;;;;5000250;28;20265;-85
2022/04/23 10:20:54;;;;;;;3.83;3.20;;;10.20;99.90;;;;;;5001352;28;20189;-85
2022/04/23 10:23:44;;;;;;;7.60;3.05;;;;;;;;;;4985883;28;20633;-82
2022/04/23 10:26:41;;;;;;;3.47;2.93;;;10.10;99.90;;;;;;4987844;28;20224;-84
2022/04/23 10:29:09;;;;;;;8.97;1.83;;;9.90;99.90;;;;;;4981172;28;20301;-86
2022/04/23 10:31:35;;;;;;;1.80;1.70;;;10.10;99.90;;;;;;4981268;28;20220;-82
2022/04/23 10:34:01;;;;;;;2.30;1.43;;;;;;;;;;4999641;28;20662;-85
2022/04/23 10:36:27;;;;;;;3.57;2.30;;;10.70;99.90;;;;;;4981825;28;20569;-85
2022/04/23 10:39:18;;;;;;;2.10;1.90;;;10.30;99.90;;;;;;5005915;28;20193;-83
2022/04/23 10:41:44;;;;;;;4.47;2.63;;;10.70;99.90;;;;;;4978962;28;20280;-85
2022/04/23 10:44:11;;;;;;;3.53;2.75;;;;;;;;;;4992043;28;20766;-86
2022/04/23 10:46:42;;;;;;;1.80;1.43;;;10.20;99.90;;;;;;5005331;28;20201;-84
2022/04/23 10:49:19;;;;;;;3.30;3.00;;;10.10;99.90;;;;;;5006346;28;20195;-83
2022/04/23 10:51:49;;;;;;;2.83;2.13;;;10.10;99.90;;;;;;5005566;28;20181;-84
2022/04/23 10:54:18;;;;;;;1.50;1.40;;;10.30;99.90;;;;;;5006735;28;20179;-81
2022/04/23 10:56:48;;;;;;;2.93;1.17;;;10.10;99.90;;;;;;4979542;28;20647;-82
2022/04/23 10:59:52;;;;;;;2.37;1.60;;;10.00;99.90;;;;;;5004244;28;20663;-81
2022/04/23 11:02:24;;;;;;;1.20;1.10;;;10.10;99.90;;;;;;4992491;28;20638;-83
2022/04/23 11:12:14;;;;;;;1.27;0.93;;;10.50;99.90;;;;;;5018788;28;20208;-83
2022/04/23 11:13:31;;;;;;;1.65;1.42;;;14.50;99.90;;;;;;5001020;28;20219;-84
2022/04/23 11:16:13;;;;;;;1.67;1.57;;;10.60;99.90;;;;;;4995086;28;20629;-83
2022/04/23 11:18:40;;;;;;;2.20;1.77;;;10.20;99.90;;;;;;5011705;28;20212;-83
2022/04/23 11:21:27;;;;;;;3.53;2.23;;;10.90;99.90;;;;;;5012021;28;20556;-82
2022/04/23 11:23:58;;;;;;;2.73;1.70;;;12.40;99.90;;;;;;5012058;28;20181;-86
2022/04/23 11:26:46;;;;;;;1.63;1.47;;;10.30;99.90;;;;;;5012518;28;20188;-81
2022/04/23 11:29:13;;;;;;;1.97;1.53;;;10.20;99.90;;;;;;4993819;28;20212;-82
2022/04/23 11:31:39;;;;;;;3.67;2.08;;;10.60;99.90;;;;;;4994314;28;20659;-82
2022/04/23 11:34:05;;;;;;;1.57;1.20;;;10.00;99.90;;;;;;5004694;28;20189;-82
2022/04/23 11:36:32;;;;;;;1.80;1.20;;;10.40;99.90;;;;;;5011747;28;20638;-82
2022/04/23 11:38:59;;;;;;;0.88;0.82;;;10.20;99.90;;;;;;5011485;28;20243;-82
2022/04/23 11:41:33;;;;;;;1.57;1.30;;;10.30;99.90;;;;;;4978683;28;20270;-83
2022/04/23 11:44:14;;;;;;;3.63;1.80;;;10.20;99.90;;;;;;5004041;28;20181;-84
2022/04/23 11:46:42;;;;;;;1.50;1.27;;;10.10;99.90;;;;;;5006979;28;20195;-82
2022/04/23 11:49:08;;;;;;;1.13;1.00;;;9.70;99.90;;;;;;4994243;28;20185;-81
2022/04/23 11:51:34;;;;;;;1.50;1.40;;;;;;;;;;4994032;28;20646;-83
2022/04/23 11:54:00;;;;;;;1.70;1.30;;;10.00;99.90;;;;;;5012937;28;20177;-79
2022/04/23 11:56:33;;;;;;;1.80;1.40;;;10.30;99.90;;;;;;4978383;28;20761;-82
2022/04/23 11:59:09;;;;;;;1.75;1.48;;;10.30;99.90;;;;;;4976558;28;20507;-84
2022/04/23 12:01:38;;;;;;;1.80;1.30;;;10.60;99.90;;;;;;4977161;28;20205;-83
2022/04/23 12:04:04;;;;;;;2.10;1.80;;;10.60;99.90;;;;;;4973049;28;20174;-82
2022/04/23 12:06:44;;;;;;;1.23;1.08;;;10.30;99.90;;;;;;4972372;28;20174;-83
2022/04/23 12:09:11;;;;;;;1.25;1.00;;;10.30;99.90;;;;;;4976406;28;20269;-83
2022/04/23 12:11:37;;;;;;;1.47;1.30;;;10.70;99.90;;;;;;4981835;28;20260;-83
2022/04/23 12:14:03;;;;;;;1.63;1.53;;;;;;;;;;4974796;28;20186;-84
2022/04/23 12:16:37;;;;;;;2.70;1.55;;;10.30;99.90;;;;;;4975317;28;20194;-82
2022/04/23 12:19:05;;;;;;;2.45;1.30;;;10.30;99.90;;;;;;4976523;28;20272;-81
2022/04/23 12:21:31;;;;;;;0.82;0.82;;;10.10;99.90;;;;;;4967314;28;20241;-82
2022/04/23 12:23:57;;;;;;;1.53;1.13;;;10.30;99.90;;;;;;4982790;28;20190;-86
2022/04/23 12:26:24;;;;;;;1.23;1.13;;;10.10;99.90;;;;;;4995674;28;20196;-82
2022/04/23 12:42:23;;;;;;;2.00;1.37;;;;;;;;;;4987932;28;20259;-83
2022/04/23 12:44:51;;;;;;;1.87;0.80;;;10.00;99.90;;;;;;4979419;28;20797;-82
2022/04/23 12:47:26;;;;;;;3.10;1.27;;;10.10;99.90;;;;;;4960287;28;20220;-82
2022/04/23 12:49:58;;;;;;;1.30;1.20;;;10.10;99.90;;;;;;4971408;28;20182;-81
2022/04/23 12:52:36;;;;;;;2.93;1.73;;;10.40;99.90;;;;;;4970793;28;20322;-81
2022/04/23 12:55:25;;;;;;;1.67;1.50;;;10.10;99.90;;;;;;4984528;28;20249;-83
2022/04/23 12:58:02;;;;;;;5.40;1.38;;;9.80;99.90;;;;;;5006536;28;20251;-83
2022/04/23 13:00:30;;;;;;;0.97;0.97;;;10.10;99.90;;;;;;4997325;28;20186;-82
2022/04/23 13:02:59;;;;;;;1.20;1.10;;;10.00;99.90;;;;;;5011068;28;20189;-80
2022/04/23 13:05:25;;;;;;;1.33;1.23;;;;;;;;;;4982703;28;20217;-83
2022/04/23 13:10:36;;;;;;;1.80;1.40;;;9.90;99.90;;;;;;5007239;28;20200;-80
2022/04/23 13:13:03;;;;;;;2.83;1.67;;;10.20;99.90;;;;;;4981308;28;20264;-86
2022/04/23 13:15:30;;;;;;;1.40;1.30;;;10.40;99.90;;;;;;4991601;28;20597;-82
2022/04/23 13:17:56;;;;;;;1.67;1.37;;;;;;;;;;4990626;28;20557;-85
2022/04/23 13:20:22;;;;;;;2.97;2.23;;;;;;;;;;4978878;28;20185;-84
2022/04/23 13:22:48;;;;;;;1.93;1.80;;;10.70;99.90;;;;;;4992731;28;20517;-82
2022/04/23 13:25:16;;;;;;;2.47;1.97;;;10.70;99.90;;;;;;5008324;28;20221;-82
2022/04/23 13:27:43;;;;;;;2.97;2.07;;;;;;;;;;4990789;28;20724;-81
2022/04/23 13:30:10;;;;;;;2.38;1.77;;;10.60;99.90;;;;;;5007486;28;20193;-81
2022/04/23 13:32:38;;;;;;;2.03;1.70;;;;;;;;;;5006026;28;20386;-84
2022/04/23 13:35:08;;;;;;;1.45;1.35;;;10.70;99.90;;;;;;5005694;28;20191;-82
2022/04/23 13:37:34;;;;;;;3.63;1.50;;;;;;;;;;5013761;28;20185;-82
2022/04/23 13:40:00;;;;;;;1.55;0.95;;;;;;;;;;5012209;28;20192;-83
2022/04/23 13:42:26;;;;;;;1.90;1.73;;;11.20;99.90;;;;;;5002958;28;20271;-82
2022/04/23 13:44:56;;;;;;;1.85;1.75;;;11.10;99.90;;;;;;4992201;28;20209;-82
2022/04/23 13:47:22;;;;;;;2.13;1.52;;;10.20;99.90;;;;;;5003843;28;20212;-81
2022/04/23 13:49:49;;;;;;;0.98;0.98;;;11.20;99.90;;;;;;5006136;28;20197;-81
2022/04/23 13:52:15;;;;;;;1.38;1.27;;;11.10;99.90;;;;;;4989930;28;20210;-82
2022/04/23 13:54:41;;;;;;;1.30;1.20;;;10.60;99.90;;;;;;4984451;28;20350;-82
2022/04/23 13:57:07;;;;;;;2.63;1.13;;;;;;;;;;5002819;28;20264;-81
2022/04/23 13:59:34;;;;;;;0.90;0.90;;;10.60;99.90;;;;;;5004547;28;20237;-83
2022/04/23 14:10:14;;;;;;;1.13;1.03;;;11.10;99.90;;;;;;5004097;28;20216;-83
2022/04/23 14:12:39;;;;;;;1.70;1.27;;;10.90;99.90;;;;;;5007224;28;20654;-83
2022/04/23 14:15:09;;;;;;;1.10;1.10;;;10.60;99.90;;;;;;4979205;28;20196;-82